sensor_id;sensor_type;location;lat;lon;timestamp;pressure;altitude;pressure_sealevel;temperature;humidity
11808;BME280;5961;42.640;23.380;2023-04-28T00:01:35;94249.78;;;8.20;56.25
11808;BME280;5961;42.640;23.380;2023-04-28T00:04:03;94251.47;;;8.16;56.70
11808;BME280;5961;42.640;23.380;2023-04-28T00:06:30;94255.97;;;8.07;56.62
11808;BME280;5961;42.640;23.380;2023-04-28T00:08:56;94245.41;;;8.07;56.74
11808;BME280;5961;42.640;23.380;2023-04-28T00:11:23;94251.47;;;7.99;57.05
11808;BME280;5961;42.640;23.380;2023-04-28T00:13:50;94262.34;;;7.98;57.08
11808;BME280;5961;42.640;23.380;2023-04-28T00:16:17;94225.28;;;7.72;57.22
11808;BME280;5961;42.640;23.380;2023-04-28T00:18:43;94252.88;;;7.88;57.47
11808;BME280;5961;42.640;23.380;2023-04-28T00:21:11;94268.06;;;7.74;57.72
11808;BME280;5961;42.640;23.380;2023-04-28T00:23:38;94254.38;;;7.72;57.80
11808;BME280;5961;42.640;23.380;2023-04-28T00:26:05;94269.19;;;7.73;58.14
11808;BME280;5961;42.640;23.380;2023-04-28T00:28:31;94268.69;;;7.71;57.93
11808;BME280;5961;42.640;23.380;2023-04-28T00:30:58;94254.03;;;7.65;58.07
11808;BME280;5961;42.640;23.380;2023-04-28T00:33:25;94264.63;;;7.65;58.27
11808;BME280;5961;42.640;23.380;2023-04-28T00:35:58;94261.84;;;7.61;58.50
11808;BME280;5961;42.640;23.380;2023-04-28T00:38:26;94269.59;;;7.58;58.47
11808;BME280;5961;42.640;23.380;2023-04-28T00:40:52;94254.53;;;7.58;58.44
11808;BME280;5961;42.640;23.380;2023-04-28T00:43:19;94261.00;;;7.44;59.13
11808;BME280;5961;42.640;23.380;2023-04-28T00:45:46;94261.66;;;7.58;58.79
11808;BME280;5961;42.640;23.380;2023-04-28T00:48:14;94261.19;;;7.56;59.22
11808;BME280;5961;42.640;23.380;2023-04-28T00:50:41;94243.69;;;7.38;59.29
11808;BME280;5961;42.640;23.380;2023-04-28T00:53:09;94263.06;;;7.55;59.12
11808;BME280;5961;42.640;23.380;2023-04-28T00:55:37;94228.94;;;7.28;58.84
11808;BME280;5961;42.640;23.380;2023-04-28T00:58:04;94258.69;;;7.51;59.29
11808;BME280;5961;42.640;23.380;2023-04-28T01:00:31;94272.84;;;7.46;59.20
11808;BME280;5961;42.640;23.380;2023-04-28T01:02:58;94260.09;;;7.48;59.31
11808;BME280;5961;42.640;23.380;2023-04-28T01:05:25;94264.72;;;7.34;59.74
11808;BME280;5961;42.640;23.380;2023-04-28T01:07:52;94267.66;;;7.33;59.51
11808;BME280;5961;42.640;23.380;2023-04-28T01:10:19;94275.13;;;7.39;59.45
11808;BME280;5961;42.640;23.380;2023-04-28T01:12:47;94266.06;;;7.32;59.81
11808;BME280;5961;42.640;23.380;2023-04-28T01:15:16;94276.53;;;7.37;59.60
11808;BME280;5961;42.640;23.380;2023-04-28T01:17:44;94269.03;;;7.30;59.44
11808;BME280;5961;42.640;23.380;2023-04-28T01:20:11;94288.94;;;7.28;59.66
11808;BME280;5961;42.640;23.380;2023-04-28T01:22:38;94280.41;;;7.31;59.43
11808;BME280;5961;42.640;23.380;2023-04-28T01:25:07;94287.34;;;7.18;59.80
11808;BME280;5961;42.640;23.380;2023-04-28T01:27:33;94271.50;;;7.27;59.74
11808;BME280;5961;42.640;23.380;2023-04-28T01:30:00;94279.25;;;7.23;59.52
11808;BME280;5961;42.640;23.380;2023-04-28T01:32:27;94284.22;;;7.16;59.04
11808;BME280;5961;42.640;23.380;2023-04-28T01:34:53;94283.44;;;7.15;59.55
11808;BME280;5961;42.640;23.380;2023-04-28T01:37:20;94273.78;;;7.11;59.39
11808;BME280;5961;42.640;23.380;2023-04-28T01:39:47;94277.97;;;7.12;59.16
11808;BME280;5961;42.640;23.380;2023-04-28T01:42:15;94277.19;;;7.11;59.20
11808;BME280;5961;42.640;23.380;2023-04-28T01:44:41;94277.81;;;7.08;59.07
11808;BME280;5961;42.640;23.380;2023-04-28T01:47:08;94272.09;;;7.15;58.78
11808;BME280;5961;42.640;23.380;2023-04-28T01:49:35;94281.09;;;7.14;58.82
11808;BME280;5961;42.640;23.380;2023-04-28T01:52:02;94280.69;;;6.98;59.58
11808;BME280;5961;42.640;23.380;2023-04-28T01:54:28;94277.34;;;7.06;58.87
11808;BME280;5961;42.640;23.380;2023-04-28T01:56:55;94269.84;;;7.00;59.03
11808;BME280;5961;42.640;23.380;2023-04-28T01:59:23;94256.59;;;6.91;58.92
11808;BME280;5961;42.640;23.380;2023-04-28T02:01:50;94279.97;;;7.06;59.05
11808;BME280;5961;42.640;23.380;2023-04-28T02:04:16;94280.41;;;7.00;59.26
11808;BME280;5961;42.640;23.380;2023-04-28T02:06:43;94280.88;;;7.02;59.03
11808;BME280;5961;42.640;23.380;2023-04-28T02:09:10;94280.41;;;7.00;58.76
11808;BME280;5961;42.640;23.380;2023-04-28T02:11:36;94290.78;;;6.96;59.40
11808;BME280;5961;42.640;23.380;2023-04-28T02:14:03;94284.53;;;6.92;59.27
11808;BME280;5961;42.640;23.380;2023-04-28T02:16:31;94275.66;;;6.80;59.94
11808;BME280;5961;42.640;23.380;2023-04-28T02:18:58;94274.53;;;6.81;59.76
11808;BME280;5961;42.640;23.380;2023-04-28T02:21:25;94193.09;;;6.21;60.39
11808;BME280;5961;42.640;23.380;2023-04-28T02:23:52;94283.25;;;6.81;60.44
11808;BME280;5961;42.640;23.380;2023-04-28T02:26:18;94272.50;;;6.78;59.93
11808;BME280;5961;42.640;23.380;2023-04-28T02:28:45;94284.41;;;6.89;60.35
11808;BME280;5961;42.640;23.380;2023-04-28T02:31:13;94288.28;;;6.91;60.20
11808;BME280;5961;42.640;23.380;2023-04-28T02:33:41;94293.69;;;6.86;59.83
11808;BME280;5961;42.640;23.380;2023-04-28T02:36:08;94299.31;;;6.93;59.99
11808;BME280;5961;42.640;23.380;2023-04-28T02:38:35;94294.97;;;6.89;60.02
11808;BME280;5961;42.640;23.380;2023-04-28T02:41:03;94294.03;;;6.93;59.88
11808;BME280;5961;42.640;23.380;2023-04-28T02:43:31;94295.25;;;6.87;59.99
11808;BME280;5961;42.640;23.380;2023-04-28T02:45:57;94299.16;;;6.90;60.37
11808;BME280;5961;42.640;23.380;2023-04-28T02:48:24;94264.63;;;6.55;60.49
11808;BME280;5961;42.640;23.380;2023-04-28T02:50:52;94298.97;;;6.86;60.70
11808;BME280;5961;42.640;23.380;2023-04-28T02:53:20;94304.69;;;6.80;60.50
11808;BME280;5961;42.640;23.380;2023-04-28T02:55:46;94301.28;;;6.79;60.61
11808;BME280;5961;42.640;23.380;2023-04-28T02:58:13;94300.31;;;6.75;60.92
11808;BME280;5961;42.640;23.380;2023-04-28T03:00:42;94304.75;;;6.88;60.14
11808;BME280;5961;42.640;23.380;2023-04-28T03:03:08;94306.28;;;6.89;60.16
11808;BME280;5961;42.640;23.380;2023-04-28T03:05:35;94307.16;;;6.76;60.42
11808;BME280;5961;42.640;23.380;2023-04-28T03:08:03;94313.97;;;6.77;60.32
11808;BME280;5961;42.640;23.380;2023-04-28T03:10:30;94314.34;;;6.84;60.45
11808;BME280;5961;42.640;23.380;2023-04-28T03:12:57;94320.03;;;6.78;60.32
11808;BME280;5961;42.640;23.380;2023-04-28T03:15:24;94315.91;;;6.85;60.28
11808;BME280;5961;42.640;23.380;2023-04-28T03:17:51;94309.47;;;6.78;60.23
11808;BME280;5961;42.640;23.380;2023-04-28T03:20:17;94315.56;;;6.78;60.11
11808;BME280;5961;42.640;23.380;2023-04-28T03:22:44;94308.69;;;6.77;60.84
11808;BME280;5961;42.640;23.380;2023-04-28T03:25:12;94332.31;;;6.74;60.19
11808;BME280;5961;42.640;23.380;2023-04-28T03:27:38;94328.69;;;6.70;60.20
11808;BME280;5961;42.640;23.380;2023-04-28T03:30:06;94327.72;;;6.66;60.37
11808;BME280;5961;42.640;23.380;2023-04-28T03:32:34;94289.63;;;6.36;60.02
11808;BME280;5961;42.640;23.380;2023-04-28T03:35:01;94339.75;;;6.72;59.88
11808;BME280;5961;42.640;23.380;2023-04-28T03:37:27;94338.84;;;6.76;60.17
11808;BME280;5961;42.640;23.380;2023-04-28T03:39:54;94341.00;;;6.74;59.61
11808;BME280;5961;42.640;23.380;2023-04-28T03:42:22;94352.59;;;6.65;59.68
11808;BME280;5961;42.640;23.380;2023-04-28T03:44:49;94351.22;;;6.67;59.81
11808;BME280;5961;42.640;23.380;2023-04-28T03:47:15;94362.00;;;6.57;59.83
11808;BME280;5961;42.640;23.380;2023-04-28T03:49:42;94360.44;;;6.56;59.73
11808;BME280;5961;42.640;23.380;2023-04-28T03:52:09;94363.56;;;6.58;60.00
11808;BME280;5961;42.640;23.380;2023-04-28T03:54:35;94365.13;;;6.59;59.91
11808;BME280;5961;42.640;23.380;2023-04-28T03:57:02;94360.44;;;6.56;60.04
11808;BME280;5961;42.640;23.380;2023-04-28T03:59:31;94365.03;;;6.64;59.81
11808;BME280;5961;42.640;23.380;2023-04-28T04:01:58;94379.00;;;6.65;59.48
11808;BME280;5961;42.640;23.380;2023-04-28T04:04:24;94373.81;;;6.59;59.15
11808;BME280;5961;42.640;23.380;2023-04-28T04:06:51;94375.09;;;6.62;59.08
11808;BME280;5961;42.640;23.380;2023-04-28T04:09:18;94390.22;;;6.70;59.14
11808;BME280;5961;42.640;23.380;2023-04-28T04:11:45;94386.81;;;6.70;59.13
11808;BME280;5961;42.640;23.380;2023-04-28T04:14:11;94385.53;;;6.67;58.80
11808;BME280;5961;42.640;23.380;2023-04-28T04:16:39;94391.69;;;6.76;58.64
11808;BME280;5961;42.640;23.380;2023-04-28T04:19:06;94393.22;;;6.77;58.59
11808;BME280;5961;42.640;23.380;2023-04-28T04:21:33;94383.63;;;6.81;58.46
11808;BME280;5961;42.640;23.380;2023-04-28T04:24:00;94362.72;;;6.71;58.52
11808;BME280;5961;42.640;23.380;2023-04-28T04:26:26;94399.13;;;6.96;58.31
11808;BME280;5961;42.640;23.380;2023-04-28T04:28:53;94371.34;;;6.77;58.19
11808;BME280;5961;42.640;23.380;2023-04-28T04:31:20;94370.56;;;6.76;57.11
11808;BME280;5961;42.640;23.380;2023-04-28T04:33:48;94403.41;;;7.06;57.66
11808;BME280;5961;42.640;23.380;2023-04-28T04:36:14;94404.66;;;7.08;58.10
11808;BME280;5961;42.640;23.380;2023-04-28T04:38:41;94413.56;;;7.12;58.08
11808;BME280;5961;42.640;23.380;2023-04-28T04:41:08;94402.56;;;7.19;57.67
11808;BME280;5961;42.640;23.380;2023-04-28T04:43:35;94408.31;;;7.21;57.09
11808;BME280;5961;42.640;23.380;2023-04-28T04:46:01;94421.13;;;7.28;56.81
11808;BME280;5961;42.640;23.380;2023-04-28T04:48:28;94420.50;;;7.31;57.09
11808;BME280;5961;42.640;23.380;2023-04-28T04:50:56;94407.41;;;7.26;56.71
11808;BME280;5961;42.640;23.380;2023-04-28T04:53:23;94418.38;;;7.41;56.75
11808;BME280;5961;42.640;23.380;2023-04-28T04:55:50;94422.88;;;7.41;56.49
11808;BME280;5961;42.640;23.380;2023-04-28T04:58:16;94423.25;;;7.48;56.24
11808;BME280;5961;42.640;23.380;2023-04-28T05:00:43;94429.00;;;7.50;56.80
11808;BME280;5961;42.640;23.380;2023-04-28T05:03:10;94424.81;;;7.49;56.04
11808;BME280;5961;42.640;23.380;2023-04-28T05:05:37;94441.13;;;7.42;56.11
11808;BME280;5961;42.640;23.380;2023-04-28T05:08:05;94423.16;;;7.31;56.98
11808;BME280;5961;42.640;23.380;2023-04-28T05:10:32;94445.63;;;7.42;56.97
11808;BME280;5961;42.640;23.380;2023-04-28T05:12:59;94434.75;;;7.43;56.75
11808;BME280;5961;42.640;23.380;2023-04-28T05:15:25;94439.47;;;7.55;56.51
11808;BME280;5961;42.640;23.380;2023-04-28T05:17:52;94435.25;;;7.54;56.19
11808;BME280;5961;42.640;23.380;2023-04-28T05:20:19;94434.97;;;7.55;56.59
11808;BME280;5961;42.640;23.380;2023-04-28T05:22:45;94438.69;;;7.54;56.29
11808;BME280;5961;42.640;23.380;2023-04-28T05:25:14;94438.69;;;7.54;55.91
11808;BME280;5961;42.640;23.380;2023-04-28T05:27:40;94441.69;;;7.61;56.26
11808;BME280;5961;42.640;23.380;2023-04-28T05:30:09;94436.84;;;7.55;56.44
11808;BME280;5961;42.640;23.380;2023-04-28T05:32:36;94435.91;;;7.59;56.56
11808;BME280;5961;42.640;23.380;2023-04-28T05:35:03;94432.00;;;7.57;57.18
11808;BME280;5961;42.640;23.380;2023-04-28T05:37:30;94433.63;;;7.66;57.37
11808;BME280;5961;42.640;23.380;2023-04-28T05:39:57;94434.44;;;7.76;57.11
11808;BME280;5961;42.640;23.380;2023-04-28T05:42:25;94448.09;;;7.69;56.60
11808;BME280;5961;42.640;23.380;2023-04-28T05:44:52;94440.16;;;7.69;57.23
11808;BME280;5961;42.640;23.380;2023-04-28T05:47:18;94449.19;;;7.68;57.61
11808;BME280;5961;42.640;23.380;2023-04-28T05:49:45;94431.16;;;7.70;56.88
11808;BME280;5961;42.640;23.380;2023-04-28T05:52:12;94450.94;;;7.72;57.43
11808;BME280;5961;42.640;23.380;2023-04-28T05:54:38;94439.75;;;7.76;57.33
11808;BME280;5961;42.640;23.380;2023-04-28T05:57:05;94438.59;;;7.68;57.29
11808;BME280;5961;42.640;23.380;2023-04-28T05:59:33;94438.81;;;7.80;56.90
11808;BME280;5961;42.640;23.380;2023-04-28T06:02:01;94458.25;;;7.76;57.14
11808;BME280;5961;42.640;23.380;2023-04-28T06:04:27;94439.59;;;7.81;56.64
11808;BME280;5961;42.640;23.380;2023-04-28T06:06:54;94473.22;;;7.80;56.85
11808;BME280;5961;42.640;23.380;2023-04-28T06:09:21;94459.94;;;7.71;55.41
11808;BME280;5961;42.640;23.380;2023-04-28T06:11:47;94470.72;;;7.75;55.20
11808;BME280;5961;42.640;23.380;2023-04-28T06:14:14;94463.50;;;7.67;56.13
11808;BME280;5961;42.640;23.380;2023-04-28T06:16:42;94427.25;;;7.67;55.71
11808;BME280;5961;42.640;23.380;2023-04-28T06:19:09;94434.13;;;7.77;56.06
11808;BME280;5961;42.640;23.380;2023-04-28T06:21:35;94442.44;;;7.84;56.27
11808;BME280;5961;42.640;23.380;2023-04-28T06:24:02;94438.97;;;7.75;55.93
11808;BME280;5961;42.640;23.380;2023-04-28T06:26:29;94437.75;;;7.81;55.13
11808;BME280;5961;42.640;23.380;2023-04-28T06:28:56;94428.59;;;7.87;55.05
11808;BME280;5961;42.640;23.380;2023-04-28T06:31:22;94447.94;;;7.96;55.24
11808;BME280;5961;42.640;23.380;2023-04-28T06:33:50;94445.28;;;7.96;54.69
11808;BME280;5961;42.640;23.380;2023-04-28T06:36:17;94445.94;;;8.02;54.87
11808;BME280;5961;42.640;23.380;2023-04-28T06:38:44;94438.16;;;8.05;55.11
11808;BME280;5961;42.640;23.380;2023-04-28T06:41:11;94442.41;;;8.15;54.36
11808;BME280;5961;42.640;23.380;2023-04-28T06:43:37;94445.06;;;8.23;54.79
11808;BME280;5961;42.640;23.380;2023-04-28T06:46:04;94444.34;;;8.32;54.06
11808;BME280;5961;42.640;23.380;2023-04-28T06:48:31;94436.41;;;8.32;54.05
11808;BME280;5961;42.640;23.380;2023-04-28T06:50:59;94446.72;;;8.42;53.16
11808;BME280;5961;42.640;23.380;2023-04-28T06:53:25;94433.47;;;8.42;52.63
11808;BME280;5961;42.640;23.380;2023-04-28T06:55:52;94436.47;;;8.49;51.93
11808;BME280;5961;42.640;23.380;2023-04-28T06:58:19;94381.16;;;8.08;51.04
11808;BME280;5961;42.640;23.380;2023-04-28T07:00:46;94433.19;;;8.52;51.32
11808;BME280;5961;42.640;23.380;2023-04-28T07:03:12;94437.38;;;8.53;51.89
11808;BME280;5961;42.640;23.380;2023-04-28T07:05:39;94442.38;;;8.54;52.30
11808;BME280;5961;42.640;23.380;2023-04-28T07:08:07;94440.53;;;8.55;52.09
11808;BME280;5961;42.640;23.380;2023-04-28T07:10:34;94451.44;;;8.62;52.54
11808;BME280;5961;42.640;23.380;2023-04-28T07:13:00;94436.75;;;8.56;52.30
11808;BME280;5961;42.640;23.380;2023-04-28T07:15:27;94448.16;;;8.73;50.64
11808;BME280;5961;42.640;23.380;2023-04-28T07:17:54;94451.13;;;8.72;50.99
11808;BME280;5961;42.640;23.380;2023-04-28T07:20:20;94443.03;;;8.77;51.06
11808;BME280;5961;42.640;23.380;2023-04-28T07:22:47;94441.16;;;8.86;50.44
11808;BME280;5961;42.640;23.380;2023-04-28T07:25:15;94446.34;;;8.91;50.90
11808;BME280;5961;42.640;23.380;2023-04-28T07:27:42;94443.19;;;8.98;51.29
11808;BME280;5961;42.640;23.380;2023-04-28T07:30:09;94430.28;;;8.96;51.66
11808;BME280;5961;42.640;23.380;2023-04-28T07:32:35;94438.38;;;9.08;51.88
11808;BME280;5961;42.640;23.380;2023-04-28T07:35:02;94422.13;;;9.10;51.58
11808;BME280;5961;42.640;23.380;2023-04-28T07:37:29;94438.19;;;9.22;52.02
11808;BME280;5961;42.640;23.380;2023-04-28T07:39:56;94427.75;;;9.25;51.37
11808;BME280;5961;42.640;23.380;2023-04-28T07:42:24;94433.81;;;9.34;51.64
11808;BME280;5961;42.640;23.380;2023-04-28T07:44:51;94406.53;;;9.25;51.77
11808;BME280;5961;42.640;23.380;2023-04-28T07:47:18;94439.13;;;9.52;51.34
11808;BME280;5961;42.640;23.380;2023-04-28T07:49:44;94438.31;;;9.60;50.49
11808;BME280;5961;42.640;23.380;2023-04-28T07:52:11;94447.22;;;9.64;49.59
11808;BME280;5961;42.640;23.380;2023-04-28T07:54:38;94441.28;;;9.67;48.91
11808;BME280;5961;42.640;23.380;2023-04-28T07:57:04;94434.72;;;9.73;48.98
11808;BME280;5961;42.640;23.380;2023-04-28T07:59:33;94438.75;;;9.79;47.46
11808;BME280;5961;42.640;23.380;2023-04-28T08:02:00;94438.56;;;9.84;47.81
11808;BME280;5961;42.640;23.380;2023-04-28T08:04:26;94426.06;;;9.93;47.37
11808;BME280;5961;42.640;23.380;2023-04-28T08:06:55;94427.88;;;10.01;48.21
11808;BME280;5961;42.640;23.380;2023-04-28T08:09:22;94437.88;;;10.04;46.61
11808;BME280;5961;42.640;23.380;2023-04-28T08:11:49;94445.69;;;10.09;45.69
11808;BME280;5961;42.640;23.380;2023-04-28T08:14:15;94433.81;;;10.15;45.96
11808;BME280;5961;42.640;23.380;2023-04-28T08:16:45;94430.03;;;10.16;46.80
11808;BME280;5961;42.640;23.380;2023-04-28T08:19:12;94435.84;;;10.18;46.09
11808;BME280;5961;42.640;23.380;2023-04-28T08:21:39;94432.81;;;10.28;46.24
11808;BME280;5961;42.640;23.380;2023-04-28T08:24:06;94433.41;;;10.34;46.54
11808;BME280;5961;42.640;23.380;2023-04-28T08:26:35;94414.78;;;10.34;46.36
11808;BME280;5961;42.640;23.380;2023-04-28T08:29:02;94427.88;;;10.48;46.36
11808;BME280;5961;42.640;23.380;2023-04-28T08:31:29;94421.06;;;10.59;46.03
11808;BME280;5961;42.640;23.380;2023-04-28T08:33:57;94424.78;;;10.66;46.06
11808;BME280;5961;42.640;23.380;2023-04-28T08:36:24;94419.72;;;10.73;45.34
11808;BME280;5961;42.640;23.380;2023-04-28T08:38:56;94424.88;;;10.78;45.56
11808;BME280;5961;42.640;23.380;2023-04-28T08:41:24;94413.91;;;10.80;45.05
11808;BME280;5961;42.640;23.380;2023-04-28T08:43:52;94416.47;;;10.88;45.59
11808;BME280;5961;42.640;23.380;2023-04-28T08:46:20;94422.84;;;10.96;45.39
11808;BME280;5961;42.640;23.380;2023-04-28T08:48:48;94421.88;;;11.00;44.69
11808;BME280;5961;42.640;23.380;2023-04-28T08:51:25;94420.44;;;11.03;44.50
11808;BME280;5961;42.640;23.380;2023-04-28T08:53:54;94416.94;;;11.11;44.21
11808;BME280;5961;42.640;23.380;2023-04-28T08:56:26;94404.09;;;11.13;44.10
11808;BME280;5961;42.640;23.380;2023-04-28T08:58:56;94373.88;;;10.97;44.04
11808;BME280;5961;42.640;23.380;2023-04-28T09:01:24;94411.81;;;11.27;43.99
11808;BME280;5961;42.640;23.380;2023-04-28T09:03:53;94409.91;;;11.27;43.82
11808;BME280;5961;42.640;23.380;2023-04-28T09:06:21;94402.84;;;11.31;43.71
11808;BME280;5961;42.640;23.380;2023-04-28T09:08:47;94407.19;;;11.36;43.74
11808;BME280;5961;42.640;23.380;2023-04-28T09:11:14;94394.00;;;11.39;43.97
11808;BME280;5961;42.640;23.380;2023-04-28T09:13:41;94393.34;;;11.42;44.13
11808;BME280;5961;42.640;23.380;2023-04-28T09:16:07;94396.47;;;11.44;43.61
11808;BME280;5961;42.640;23.380;2023-04-28T09:18:34;94402.66;;;11.48;43.19
11808;BME280;5961;42.640;23.380;2023-04-28T09:21:05;94390.03;;;11.45;43.28
11808;BME280;5961;42.640;23.380;2023-04-28T09:23:34;94389.34;;;11.48;42.21
11808;BME280;5961;42.640;23.380;2023-04-28T09:26:02;94352.16;;;11.28;43.01
11808;BME280;5961;42.640;23.380;2023-04-28T09:28:29;94385.84;;;11.56;42.06
11808;BME280;5961;42.640;23.380;2023-04-28T09:30:56;94388.16;;;11.58;42.24
11808;BME280;5961;42.640;23.380;2023-04-28T09:33:23;94378.31;;;11.58;42.08
11808;BME280;5961;42.640;23.380;2023-04-28T09:35:50;94386.66;;;11.69;42.28
11808;BME280;5961;42.640;23.380;2023-04-28T09:38:18;94367.25;;;11.69;42.59
11808;BME280;5961;42.640;23.380;2023-04-28T09:40:53;94387.25;;;11.75;42.45
11808;BME280;5961;42.640;23.380;2023-04-28T09:43:28;94365.16;;;11.74;42.35
11808;BME280;5961;42.640;23.380;2023-04-28T09:45:56;94369.50;;;11.79;41.84
11808;BME280;5961;42.640;23.380;2023-04-28T09:48:31;94365.50;;;11.85;41.37
11808;BME280;5961;42.640;23.380;2023-04-28T09:50:58;94365.50;;;11.85;41.59
11808;BME280;5961;42.640;23.380;2023-04-28T09:53:26;94369.06;;;11.89;42.24
11808;BME280;5961;42.640;23.380;2023-04-28T09:55:56;94354.53;;;11.86;41.53
11808;BME280;5961;42.640;23.380;2023-04-28T09:58:24;94355.88;;;11.92;41.12
11808;BME280;5961;42.640;23.380;2023-04-28T10:00:52;94357.09;;;11.95;40.46
11808;BME280;5961;42.640;23.380;2023-04-28T10:03:23;94344.22;;;11.97;40.44
11808;BME280;5961;42.640;23.380;2023-04-28T10:05:51;94337.78;;;11.98;40.84
11808;BME280;5961;42.640;23.380;2023-04-28T10:08:19;94357.53;;;11.97;39.81
11808;BME280;5961;42.640;23.380;2023-04-28T10:10:47;94344.44;;;11.92;40.16
11808;BME280;5961;42.640;23.380;2023-04-28T10:13:16;94333.22;;;11.86;41.14
11808;BME280;5961;42.640;23.380;2023-04-28T10:15:43;94351.22;;;11.89;40.19
11808;BME280;5961;42.640;23.380;2023-04-28T10:18:11;94346.00;;;11.93;40.15
11808;BME280;5961;42.640;23.380;2023-04-28T10:20:39;94342.66;;;11.96;39.92
11808;BME280;5961;42.640;23.380;2023-04-28T10:23:20;94345.00;;;11.97;38.18
11808;BME280;5961;42.640;23.380;2023-04-28T10:25:54;94347.00;;;12.00;38.14
11808;BME280;5961;42.640;23.380;2023-04-28T10:28:24;94319.56;;;12.00;38.96
11808;BME280;5961;42.640;23.380;2023-04-28T10:31:10;94322.69;;;12.02;38.01
11808;BME280;5961;42.640;23.380;2023-04-28T10:33:38;94330.03;;;12.05;38.26
11808;BME280;5961;42.640;23.380;2023-04-28T10:36:05;94326.69;;;12.08;39.27
11808;BME280;5961;42.640;23.380;2023-04-28T10:38:33;94311.81;;;12.07;39.81
11808;BME280;5961;42.640;23.380;2023-04-28T10:41:00;94317.56;;;12.09;39.92
11808;BME280;5961;42.640;23.380;2023-04-28T10:43:36;94313.56;;;12.15;39.27
11808;BME280;5961;42.640;23.380;2023-04-28T10:46:05;94320.44;;;12.28;39.31
11808;BME280;5961;42.640;23.380;2023-04-28T10:48:54;94293.56;;;12.33;40.10
11808;BME280;5961;42.640;23.380;2023-04-28T10:51:28;94303.66;;;12.40;38.48
11808;BME280;5961;42.640;23.380;2023-04-28T10:54:14;94302.41;;;12.49;38.21
11808;BME280;5961;42.640;23.380;2023-04-28T10:57:15;94319.72;;;12.55;38.00
11808;BME280;5961;42.640;23.380;2023-04-28T10:59:44;94309.81;;;12.68;37.72
11808;BME280;5961;42.640;23.380;2023-04-28T11:02:36;94315.22;;;12.84;37.46
11808;BME280;5961;42.640;23.380;2023-04-28T11:05:14;94272.75;;;12.79;37.45
11808;BME280;5961;42.640;23.380;2023-04-28T11:11:19;94293.91;;;13.27;34.77
11808;BME280;5961;42.640;23.380;2023-04-28T11:13:47;94285.41;;;13.37;34.51
11808;BME280;5961;42.640;23.380;2023-04-28T11:16:16;94277.50;;;13.56;35.02
11808;BME280;5961;42.640;23.380;2023-04-28T11:19:00;94278.88;;;13.82;35.27
11808;BME280;5961;42.640;23.380;2023-04-28T11:21:31;94280.06;;;14.00;34.14
11808;BME280;5961;42.640;23.380;2023-04-28T11:23:58;94277.97;;;14.09;33.94
11808;BME280;5961;42.640;23.380;2023-04-28T11:26:26;94273.66;;;14.20;32.98
11808;BME280;5961;42.640;23.380;2023-04-28T11:28:54;94261.25;;;14.12;32.73
11808;BME280;5961;42.640;23.380;2023-04-28T11:31:24;94273.38;;;14.41;32.84
11808;BME280;5961;42.640;23.380;2023-04-28T11:33:58;94256.13;;;14.38;32.51
11808;BME280;5961;42.640;23.380;2023-04-28T11:36:35;94265.31;;;14.56;32.68
11808;BME280;5961;42.640;23.380;2023-04-28T11:39:03;94287.97;;;14.62;33.44
11808;BME280;5961;42.640;23.380;2023-04-28T11:41:31;94271.00;;;14.74;32.71
11808;BME280;5961;42.640;23.380;2023-04-28T11:43:59;94254.75;;;14.82;32.59
11808;BME280;5961;42.640;23.380;2023-04-28T11:46:27;94253.19;;;15.01;31.86
11808;BME280;5961;42.640;23.380;2023-04-28T11:49:01;94259.41;;;15.08;31.46
11808;BME280;5961;42.640;23.380;2023-04-28T11:51:29;94256.66;;;15.24;29.37
11808;BME280;5961;42.640;23.380;2023-04-28T11:53:57;94250.06;;;15.41;29.54
11808;BME280;5961;42.640;23.380;2023-04-28T11:56:25;94246.47;;;15.52;29.22
11808;BME280;5961;42.640;23.380;2023-04-28T11:59:02;94249.78;;;15.68;28.90
11808;BME280;5961;42.640;23.380;2023-04-28T12:01:31;94242.13;;;15.67;27.03
11808;BME280;5961;42.640;23.380;2023-04-28T12:03:58;94245.47;;;15.86;27.14
11808;BME280;5961;42.640;23.380;2023-04-28T12:06:25;94247.56;;;15.97;26.01
11808;BME280;5961;42.640;23.380;2023-04-28T12:08:52;94247.72;;;16.07;26.61
11808;BME280;5961;42.640;23.380;2023-04-28T12:11:19;94240.53;;;16.15;26.42
11808;BME280;5961;42.640;23.380;2023-04-28T12:14:03;94231.16;;;16.28;25.50
11808;BME280;5961;42.640;23.380;2023-04-28T12:16:39;94240.94;;;16.43;26.21
11808;BME280;5961;42.640;23.380;2023-04-28T12:19:08;94227.19;;;16.48;25.91
11808;BME280;5961;42.640;23.380;2023-04-28T12:21:36;94225.44;;;16.56;26.41
11808;BME280;5961;42.640;23.380;2023-04-28T12:24:13;94221.31;;;16.65;26.32
11808;BME280;5961;42.640;23.380;2023-04-28T12:26:40;94201.34;;;16.63;27.17
11808;BME280;5961;42.640;23.380;2023-04-28T12:29:07;94230.75;;;16.85;26.37
11808;BME280;5961;42.640;23.380;2023-04-28T12:31:48;94238.69;;;16.75;26.50
11808;BME280;5961;42.640;23.380;2023-04-28T12:34:17;94214.66;;;16.85;26.17
11808;BME280;5961;42.640;23.380;2023-04-28T12:36:43;94212.75;;;16.89;26.15
11808;BME280;5961;42.640;23.380;2023-04-28T12:39:12;94219.34;;;16.92;25.74
11808;BME280;5961;42.640;23.380;2023-04-28T12:41:40;94209.84;;;17.01;26.49
11808;BME280;5961;42.640;23.380;2023-04-28T12:44:08;94221.34;;;17.02;26.01
11808;BME280;5961;42.640;23.380;2023-04-28T12:46:34;94219.84;;;17.05;26.49
11808;BME280;5961;42.640;23.380;2023-04-28T12:49:03;94207.91;;;17.02;26.82
11808;BME280;5961;42.640;23.380;2023-04-28T12:51:29;94205.63;;;17.00;27.47
11808;BME280;5961;42.640;23.380;2023-04-28T12:53:56;94207.22;;;17.09;27.99
11808;BME280;5961;42.640;23.380;2023-04-28T12:56:23;94206.44;;;17.08;28.69
11808;BME280;5961;42.640;23.380;2023-04-28T12:58:50;94194.19;;;17.11;28.54
11808;BME280;5961;42.640;23.380;2023-04-28T13:01:16;94181.97;;;17.13;27.96
11808;BME280;5961;42.640;23.380;2023-04-28T13:03:43;94190.75;;;17.10;28.13
11808;BME280;5961;42.640;23.380;2023-04-28T13:06:13;94183.56;;;17.21;28.30
11808;BME280;5961;42.640;23.380;2023-04-28T13:08:39;94190.88;;;17.24;27.60
11808;BME280;5961;42.640;23.380;2023-04-28T13:11:07;94202.38;;;17.21;27.53
11808;BME280;5961;42.640;23.380;2023-04-28T13:13:35;94183.66;;;17.32;27.57
11808;BME280;5961;42.640;23.380;2023-04-28T13:16:02;94185.97;;;17.33;27.17